createdAt,value
2023-03-19T00:01:53.473Z,14.16
2023-03-19T00:04:24.225Z,14.19
2023-03-19T00:06:51.965Z,14.11
2023-03-19T00:09:20.641Z,14.15
2023-03-19T00:11:48.742Z,14.24
2023-03-19T00:14:17.605Z,14.20
2023-03-19T00:16:45.380Z,14.03
2023-03-19T00:19:12.938Z,13.80
2023-03-19T00:21:41.749Z,14.00
2023-03-19T00:24:09.960Z,13.99
2023-03-19T00:26:38.504Z,13.88
2023-03-19T00:29:06.573Z,14.11
2023-03-19T00:31:34.754Z,14.01
2023-03-19T00:34:03.218Z,14.11
2023-03-19T00:36:31.128Z,14.10
2023-03-19T00:38:59.961Z,13.98
2023-03-19T00:41:27.511Z,14.03
2023-03-19T00:43:56.314Z,13.97
2023-03-19T00:46:23.971Z,13.57
2023-03-19T00:48:55.613Z,13.71
2023-03-19T00:51:24.585Z,13.61
2023-03-19T00:53:52.495Z,13.63
2023-03-19T00:56:21.755Z,13.63
2023-03-19T00:58:49.194Z,13.70
2023-03-19T01:01:18.884Z,13.51
2023-03-19T01:03:47.156Z,13.65
2023-03-19T01:06:14.750Z,13.52
2023-03-19T01:08:42.473Z,13.40
2023-03-19T01:11:12.337Z,13.26
2023-03-19T01:13:42.088Z,12.45
2023-03-19T01:16:10.107Z,13.07
2023-03-19T01:18:37.929Z,13.21
2023-03-19T01:21:06.273Z,13.34
2023-03-19T01:23:33.800Z,13.40
2023-03-19T01:26:01.736Z,13.35
2023-03-19T01:28:29.244Z,13.27
2023-03-19T01:31:01.856Z,13.35
2023-03-19T01:33:29.441Z,13.42
2023-03-19T01:35:58.022Z,13.46
2023-03-19T01:38:25.508Z,13.58
2023-03-19T01:40:53.248Z,13.21
2023-03-19T01:43:22.656Z,13.28
2023-03-19T01:45:52.490Z,13.25
2023-03-19T01:48:28.561Z,13.17
2023-03-19T01:50:57.588Z,13.12
2023-03-19T01:53:28.820Z,13.07
2023-03-19T01:56:00.558Z,13.22
2023-03-19T01:58:28.770Z,13.13
2023-03-19T02:00:57.157Z,12.99
2023-03-19T02:03:27.596Z,12.97
2023-03-19T02:05:57.426Z,12.93
2023-03-19T02:08:25.889Z,12.94
2023-03-19T02:10:56.098Z,12.97
2023-03-19T02:13:24.324Z,13.03
2023-03-19T02:15:51.969Z,13.17
2023-03-19T02:18:19.924Z,13.21
2023-03-19T02:20:55.799Z,13.01
2023-03-19T02:23:33.511Z,12.87
2023-03-19T02:26:07.618Z,13.16
2023-03-19T02:28:37.649Z,12.77
2023-03-19T02:31:05.762Z,12.94
2023-03-19T02:33:33.961Z,12.67
2023-03-19T02:36:03.779Z,12.95
2023-03-19T02:38:34.633Z,12.87
2023-03-19T02:41:04.557Z,12.96
2023-03-19T02:43:35.646Z,12.99
2023-03-19T02:46:04.295Z,12.96
2023-03-19T02:48:32.431Z,12.78
2023-03-19T02:51:00.037Z,12.99
2023-03-19T02:53:27.622Z,13.09
2023-03-19T02:55:55.045Z,12.91
2023-03-19T02:58:22.660Z,12.87
2023-03-19T03:00:52.058Z,12.41
2023-03-19T03:03:19.797Z,12.94
2023-03-19T03:05:47.305Z,12.95
2023-03-19T03:08:14.709Z,12.92
2023-03-19T03:10:42.174Z,12.92
2023-03-19T03:13:09.600Z,13.08
2023-03-19T03:15:37.462Z,13.17
2023-03-19T03:18:06.719Z,13.07
2023-03-19T03:20:34.577Z,12.86
2023-03-19T03:23:02.596Z,12.94
2023-03-19T03:25:30.643Z,13.03
2023-03-19T03:27:58.163Z,13.01
2023-03-19T03:30:25.735Z,13.23
2023-03-19T03:32:53.208Z,13.23
2023-03-19T03:35:22.797Z,13.25
2023-03-19T03:37:50.416Z,13.49
2023-03-19T03:40:18.348Z,13.43
2023-03-19T03:42:45.787Z,12.29
2023-03-19T03:45:14.334Z,12.29
2023-03-19T03:47:42.203Z,12.81
2023-03-19T03:50:11.719Z,12.86
2023-03-19T03:52:42.069Z,12.67
2023-03-19T03:55:10.604Z,11.65
2023-03-19T03:57:38.231Z,12.42
2023-03-19T04:00:06.867Z,12.93
2023-03-19T04:02:34.313Z,12.81
2023-03-19T04:05:01.804Z,12.63
2023-03-19T04:07:29.227Z,12.83
2023-03-19T04:09:59.323Z,12.87
2023-03-19T04:12:27.156Z,12.97
2023-03-19T04:14:54.590Z,12.92
2023-03-19T04:17:22.282Z,12.65
2023-03-19T04:19:49.717Z,12.57
2023-03-19T04:22:17.139Z,12.98
2023-03-19T04:24:44.779Z,12.93
2023-03-19T04:27:13.671Z,12.85
2023-03-19T04:29:41.265Z,12.88
2023-03-19T04:32:09.021Z,13.02
2023-03-19T04:34:37.353Z,11.89
2023-03-19T04:37:05.132Z,12.32
2023-03-19T04:39:33.485Z,12.65
2023-03-19T04:42:01.019Z,12.88
2023-03-19T04:44:30.975Z,13.11
2023-03-19T04:46:58.536Z,12.79
2023-03-19T04:49:25.966Z,12.01
2023-03-19T04:51:53.493Z,12.73
2023-03-19T04:54:20.968Z,12.67
2023-03-19T04:56:48.405Z,12.96
2023-03-19T04:59:15.831Z,13.03
2023-03-19T05:01:44.636Z,12.54
2023-03-19T05:04:12.293Z,12.99
2023-03-19T05:06:39.824Z,12.98
2023-03-19T05:09:07.825Z,12.91
2023-03-19T05:11:35.376Z,12.77
2023-03-19T05:14:02.855Z,12.87
2023-03-19T05:16:30.719Z,12.92
2023-03-19T05:18:59.456Z,12.73
2023-03-19T05:21:26.874Z,11.59
2023-03-19T05:23:54.859Z,12.42
2023-03-19T05:26:22.544Z,12.75
2023-03-19T05:28:50.171Z,12.61
2023-03-19T05:31:17.743Z,12.80
2023-03-19T05:33:45.269Z,12.52
2023-03-19T05:36:14.053Z,12.26
2023-03-19T05:38:41.680Z,11.40
2023-03-19T05:41:09.326Z,11.74
2023-03-19T05:43:37.164Z,11.19
2023-03-19T05:46:05.002Z,11.24
2023-03-19T05:48:33.501Z,10.57
2023-03-19T05:51:01.317Z,10.53
2023-03-19T05:53:30.390Z,10.54
2023-03-19T05:55:57.970Z,10.42
2023-03-19T05:58:25.917Z,10.42
2023-03-19T06:00:56.177Z,10.62
2023-03-19T06:03:23.842Z,10.58
2023-03-19T06:05:51.779Z,10.93
2023-03-19T06:08:19.691Z,10.89
2023-03-19T06:10:48.440Z,11.09
2023-03-19T06:13:15.889Z,11.21
2023-03-19T06:15:43.316Z,11.33
2023-03-19T06:18:11.148Z,11.61
2023-03-19T06:20:38.539Z,12.67
2023-03-19T06:23:05.978Z,12.32
2023-03-19T06:25:33.396Z,12.58
2023-03-19T06:28:02.139Z,12.65
2023-03-19T06:30:29.613Z,12.35
2023-03-19T06:32:57.161Z,13.51
2023-03-19T06:35:24.650Z,13.87
2023-03-19T06:37:52.617Z,14.03
2023-03-19T06:40:20.301Z,13.93
2023-03-19T06:42:48.134Z,14.37
2023-03-19T06:45:18.946Z,14.51
2023-03-19T06:47:46.926Z,14.51
2023-03-19T06:50:16.406Z,14.43
2023-03-19T06:52:44.562Z,14.40
2023-03-19T06:55:12.643Z,14.17
2023-03-19T06:57:40.336Z,13.82
2023-03-19T07:00:11.490Z,13.52
2023-03-19T07:02:40.313Z,13.69
2023-03-19T07:05:08.274Z,13.84
2023-03-19T07:07:35.785Z,13.18
2023-03-19T07:10:03.866Z,12.54
2023-03-19T07:12:31.502Z,12.85
2023-03-19T07:14:59.016Z,12.46
2023-03-19T07:17:26.786Z,13.21
2023-03-19T07:19:55.789Z,13.20
2023-03-19T07:22:23.466Z,12.99
2023-03-19T07:24:51.565Z,12.16
2023-03-19T07:27:25.247Z,12.41
2023-03-19T07:29:52.649Z,11.32
2023-03-19T07:32:20.603Z,10.41
2023-03-19T07:34:48.146Z,10.46
2023-03-19T07:37:16.960Z,10.62
2023-03-19T07:39:44.397Z,10.58
2023-03-19T07:42:12.006Z,10.90
2023-03-19T07:44:39.748Z,10.53
2023-03-19T07:47:16.041Z,10.90
2023-03-19T07:50:01.691Z,12.21
2023-03-19T07:52:30.454Z,12.68
2023-03-19T07:54:57.877Z,12.98
2023-03-19T07:57:25.806Z,12.98
2023-03-19T07:59:53.224Z,13.14
2023-03-19T08:02:22.954Z,13.15
2023-03-19T08:04:51.182Z,13.13
2023-03-19T08:07:18.618Z,13.27
2023-03-19T08:09:47.391Z,12.23
2023-03-19T08:12:15.305Z,11.83
2023-03-19T08:14:42.955Z,12.64
2023-03-19T08:17:10.638Z,13.00
2023-03-19T08:19:38.101Z,13.16
2023-03-19T08:22:05.936Z,13.14
2023-03-19T08:24:33.368Z,13.35
2023-03-19T08:27:02.183Z,13.19
2023-03-19T08:29:29.615Z,13.29
2023-03-19T08:31:58.595Z,13.33
2023-03-19T08:34:26.995Z,13.25
2023-03-19T08:36:54.441Z,13.35
2023-03-19T08:39:21.910Z,13.07
2023-03-19T08:41:49.345Z,12.56
2023-03-19T08:44:18.072Z,12.78
2023-03-19T08:46:45.634Z,12.88
2023-03-19T08:49:13.129Z,12.95
2023-03-19T08:51:40.590Z,13.22
2023-03-19T08:54:09.125Z,13.11
2023-03-19T08:56:36.520Z,12.66
2023-03-19T08:59:04.063Z,12.92
2023-03-19T09:01:33.025Z,12.84
2023-03-19T09:04:00.474Z,12.81
2023-03-19T09:06:27.877Z,12.77
2023-03-19T09:08:59.692Z,12.50
2023-03-19T09:11:27.361Z,12.93
2023-03-19T09:13:54.838Z,12.98
2023-03-19T09:16:22.286Z,12.73
2023-03-19T09:18:51.278Z,12.78
2023-03-19T09:21:19.284Z,12.20
2023-03-19T09:23:46.714Z,12.12
2023-03-19T09:26:14.148Z,12.52
2023-03-19T09:28:41.685Z,12.09
2023-03-19T09:31:11.517Z,12.24
2023-03-19T09:33:39.173Z,12.03
2023-03-19T09:36:09.194Z,12.62
2023-03-19T09:38:36.714Z,12.18
2023-03-19T09:41:10.793Z,12.49
2023-03-19T09:43:58.262Z,11.97
2023-03-19T09:46:33.834Z,12.69
2023-03-19T09:49:07.179Z,12.94
2023-03-19T09:51:44.234Z,12.65
2023-03-19T09:54:24.054Z,12.85
2023-03-19T09:56:51.461Z,12.80
2023-03-19T09:59:19.476Z,12.95
2023-03-19T10:01:53.988Z,13.76
2023-03-19T10:04:39.617Z,14.17
2023-03-19T10:07:18.188Z,14.21
2023-03-19T10:09:59.590Z,14.23
2023-03-19T10:12:42.076Z,14.06
2023-03-19T10:15:19.827Z,14.40
2023-03-19T10:17:58.046Z,14.59
2023-03-19T10:20:32.860Z,14.39
2023-03-19T10:23:13.620Z,15.37
2023-03-19T10:25:44.811Z,16.00
2023-03-19T10:28:15.958Z,15.90
2023-03-19T10:30:47.745Z,16.09
2023-03-19T10:33:23.942Z,16.05
2023-03-19T10:35:58.814Z,15.69
2023-03-19T10:38:28.559Z,15.94
2023-03-19T10:41:12.317Z,15.66
2023-03-19T10:43:40.996Z,16.02
2023-03-19T10:46:13.701Z,16.07
2023-03-19T10:48:45.397Z,15.63
2023-03-19T10:51:16.356Z,14.84
2023-03-19T10:53:45.266Z,15.74
2023-03-19T10:56:20.189Z,16.40
2023-03-19T10:59:02.443Z,16.73
2023-03-19T11:01:34.084Z,16.58
2023-03-19T11:04:02.805Z,16.75
2023-03-19T11:06:34.381Z,16.72
2023-03-19T11:09:16.628Z,16.29
2023-03-19T11:11:45.558Z,16.57
2023-03-19T11:14:17.844Z,16.68
2023-03-19T11:16:56.589Z,16.80
2023-03-19T11:19:26.240Z,16.81
2023-03-19T11:22:03.819Z,16.74
2023-03-19T11:24:37.218Z,16.46
2023-03-19T11:27:06.565Z,16.31
2023-03-19T11:29:43.224Z,16.14
2023-03-19T11:32:27.561Z,16.56
2023-03-19T11:34:59.959Z,16.65
2023-03-19T11:37:34.811Z,16.63
2023-03-19T11:40:11.205Z,16.77
2023-03-19T11:43:06.755Z,16.87
2023-03-19T11:45:42.075Z,16.52
2023-03-19T11:48:27.247Z,16.76
2023-03-19T11:50:59.674Z,16.83
2023-03-19T11:53:32.054Z,16.74
2023-03-19T11:56:15.263Z,16.86
2023-03-19T11:58:57.748Z,16.86
2023-03-19T12:01:43.515Z,16.39
2023-03-19T12:04:29.774Z,15.85
2023-03-19T12:07:04.507Z,16.40
2023-03-19T12:09:39.204Z,16.60
2023-03-19T12:12:17.523Z,16.43
2023-03-19T12:14:55.586Z,16.78
2023-03-19T12:17:38.606Z,16.82
2023-03-19T12:20:21.462Z,16.78
2023-03-19T12:23:06.790Z,16.95
2023-03-19T12:25:46.511Z,17.13
2023-03-19T12:28:23.883Z,17.18
2023-03-19T12:31:08.852Z,17.20
2023-03-19T12:33:45.787Z,17.07
2023-03-19T12:36:18.236Z,17.30
2023-03-19T12:38:51.027Z,16.78
2023-03-19T12:41:22.279Z,17.12
2023-03-19T12:43:58.118Z,17.30
2023-03-19T12:46:32.197Z,17.40
2023-03-19T12:49:04.390Z,17.52
2023-03-19T12:51:36.463Z,17.69
2023-03-19T12:54:09.260Z,17.68
2023-03-19T12:56:44.899Z,17.66
2023-03-19T12:59:31.727Z,17.68
2023-03-19T13:02:02.781Z,17.49
2023-03-19T13:04:34.115Z,17.63
2023-03-19T13:07:05.411Z,17.65
2023-03-19T13:09:37.809Z,17.69
2023-03-19T13:12:10.482Z,17.72
2023-03-19T13:14:50.084Z,17.62
2023-03-19T13:17:25.374Z,17.61
2023-03-19T13:19:54.376Z,17.72
2023-03-19T13:22:24.037Z,17.75
2023-03-19T13:24:53.847Z,17.62
2023-03-19T13:27:24.749Z,17.83
2023-03-19T13:30:03.939Z,17.83
2023-03-19T13:32:39.599Z,17.52
2023-03-19T13:35:32.434Z,17.71
2023-03-19T13:38:03.022Z,17.62
2023-03-19T13:40:40.674Z,17.93
2023-03-19T13:43:41.667Z,17.58
2023-03-19T13:46:36.291Z,17.89
2023-03-19T13:49:11.364Z,17.92
2023-03-19T13:51:39.279Z,18.05
2023-03-19T13:54:16.310Z,18.07
2023-03-19T13:57:05.591Z,18.20
2023-03-19T13:59:34.224Z,18.07
2023-03-19T14:02:03.941Z,17.89
2023-03-19T14:04:32.875Z,18.12
2023-03-19T14:07:11.578Z,17.73
2023-03-19T14:09:43.093Z,17.57
2023-03-19T14:12:26.314Z,18.14
2023-03-19T14:14:57.672Z,17.71
2023-03-19T14:17:32.038Z,18.39
2023-03-19T14:20:09.227Z,18.54
2023-03-19T14:22:39.836Z,18.49
2023-03-19T14:25:19.758Z,18.72
2023-03-19T14:27:49.622Z,18.38
2023-03-19T14:30:27.599Z,18.48
2023-03-19T14:33:01.145Z,18.66
2023-03-19T14:35:29.803Z,19.01
2023-03-19T14:37:57.715Z,18.98
2023-03-19T14:40:28.062Z,19.12
2023-03-19T14:43:04.121Z,19.17
2023-03-19T14:45:49.182Z,19.11
2023-03-19T14:48:57.723Z,19.06
2023-03-19T14:51:46.094Z,19.10
2023-03-19T14:54:24.641Z,18.76
2023-03-19T14:56:52.192Z,18.02
2023-03-19T14:59:19.786Z,18.58
2023-03-19T15:01:52.168Z,18.64
2023-03-19T15:04:22.743Z,18.54
2023-03-19T15:06:55.840Z,18.67
2023-03-19T15:09:29.778Z,18.78
2023-03-19T15:12:26.047Z,18.48
2023-03-19T15:15:20.071Z,18.65
2023-03-19T15:18:03.007Z,18.85
2023-03-19T15:20:38.274Z,18.90
2023-03-19T15:23:19.987Z,19.17
2023-03-19T15:25:56.887Z,19.08
2023-03-19T15:28:26.432Z,19.00
2023-03-19T15:31:05.926Z,19.23
2023-03-19T15:33:44.080Z,19.23
2023-03-19T15:36:19.949Z,18.96
2023-03-19T15:38:51.313Z,19.15
2023-03-19T15:41:19.860Z,18.98
2023-03-19T15:43:47.832Z,19.12
2023-03-19T15:46:21.568Z,19.03
2023-03-19T15:48:53.223Z,19.11
2023-03-19T15:51:25.243Z,19.09
2023-03-19T15:53:53.807Z,19.15
2023-03-19T15:56:22.040Z,19.00
2023-03-19T15:58:53.442Z,19.06
2023-03-19T16:01:21.387Z,18.64
2023-03-19T16:03:53.018Z,18.85
2023-03-19T16:06:26.946Z,18.90
2023-03-19T16:08:56.830Z,18.44
2023-03-19T16:11:29.988Z,18.77
2023-03-19T16:13:59.093Z,18.79
2023-03-19T16:16:29.895Z,18.82
2023-03-19T16:18:58.876Z,18.77
2023-03-19T16:21:36.070Z,18.48
2023-03-19T16:24:07.517Z,18.10
2023-03-19T16:26:39.040Z,18.10
2023-03-19T16:29:16.574Z,18.46
2023-03-19T16:31:46.870Z,18.17
2023-03-19T16:34:26.184Z,18.12
2023-03-19T16:36:55.428Z,18.29
2023-03-19T16:39:32.833Z,18.28
2023-03-19T16:42:17.039Z,18.10
2023-03-19T16:44:48.286Z,18.18
2023-03-19T16:47:16.732Z,18.27
2023-03-19T16:49:44.181Z,18.12
2023-03-19T16:52:16.220Z,18.18
2023-03-19T16:54:44.186Z,18.22
2023-03-19T16:57:14.406Z,18.14
2023-03-19T16:59:41.866Z,18.07
2023-03-19T17:02:12.497Z,18.05
2023-03-19T17:04:40.078Z,17.96
2023-03-19T17:07:08.200Z,17.82
2023-03-19T17:09:37.656Z,17.74
2023-03-19T17:12:08.157Z,17.75
2023-03-19T17:14:36.125Z,17.38
2023-03-19T17:17:04.118Z,17.50
2023-03-19T17:19:36.297Z,16.92
2023-03-19T17:22:03.866Z,17.21
2023-03-19T17:24:33.332Z,17.23
2023-03-19T17:27:04.277Z,17.44
2023-03-19T17:29:33.254Z,17.40
2023-03-19T17:32:02.503Z,17.36
2023-03-19T17:34:31.890Z,17.40
2023-03-19T17:37:01.580Z,17.34
2023-03-19T17:39:31.424Z,17.26
2023-03-19T17:41:59.258Z,17.21
2023-03-19T17:44:28.089Z,17.28
2023-03-19T17:46:56.959Z,17.23
2023-03-19T17:49:26.293Z,16.89
2023-03-19T17:51:53.761Z,16.92
2023-03-19T17:54:21.325Z,16.96
2023-03-19T17:56:49.486Z,16.93
2023-03-19T17:59:16.911Z,16.23
2023-03-19T18:01:47.196Z,16.30
2023-03-19T18:04:17.009Z,16.68
2023-03-19T18:06:47.219Z,16.83
2023-03-19T18:09:20.187Z,16.84
2023-03-19T18:11:47.581Z,16.90
2023-03-19T18:14:15.058Z,16.95
2023-03-19T18:16:43.150Z,17.05
2023-03-19T18:19:20.995Z,17.14
2023-03-19T18:21:48.412Z,17.17
2023-03-19T18:24:16.171Z,17.09
2023-03-19T18:26:43.585Z,16.97
2023-03-19T18:29:11.008Z,17.02
2023-03-19T18:31:38.470Z,17.10
2023-03-19T18:34:09.628Z,17.09
2023-03-19T18:36:39.595Z,17.19
2023-03-19T18:39:08.109Z,17.20
2023-03-19T18:41:35.544Z,16.87
2023-03-19T18:44:03.594Z,17.05
2023-03-19T18:46:32.965Z,16.93
2023-03-19T18:49:02.517Z,17.00
2023-03-19T18:51:30.056Z,16.97
2023-03-19T18:53:59.067Z,17.06
2023-03-19T18:56:29.129Z,16.59
2023-03-19T18:58:58.554Z,16.51
2023-03-19T19:01:27.383Z,16.59
2023-03-19T19:03:55.942Z,15.93
2023-03-19T19:06:39.992Z,15.81
2023-03-19T19:09:14.291Z,16.26
2023-03-19T19:11:45.293Z,16.53
2023-03-19T19:14:20.275Z,15.60
2023-03-19T19:16:47.866Z,16.35
2023-03-19T19:19:17.679Z,16.06
2023-03-19T19:21:45.083Z,16.29
2023-03-19T19:24:14.925Z,16.10
2023-03-19T19:26:44.140Z,15.77
2023-03-19T19:29:14.614Z,15.73
2023-03-19T19:31:42.437Z,15.99
2023-03-19T19:34:13.522Z,16.36
2023-03-19T19:36:40.989Z,15.83
2023-03-19T19:39:08.509Z,15.92
2023-03-19T19:41:38.063Z,15.92
2023-03-19T19:44:06.620Z,16.29
2023-03-19T19:46:34.107Z,16.48
2023-03-19T19:49:01.959Z,16.36
2023-03-19T19:51:29.439Z,16.00
2023-03-19T19:53:57.459Z,16.12
2023-03-19T19:56:26.633Z,15.69
2023-03-19T19:58:57.405Z,16.30
2023-03-19T20:01:27.336Z,16.38
2023-03-19T20:03:54.923Z,16.25
2023-03-19T20:06:22.414Z,16.16
2023-03-19T20:08:50.158Z,15.99
2023-03-19T20:11:19.954Z,16.38
2023-03-19T20:13:52.503Z,16.12
2023-03-19T20:16:23.083Z,16.15
2023-03-19T20:18:53.530Z,15.61
2023-03-19T20:21:22.511Z,16.12
2023-03-19T20:23:52.871Z,15.57
2023-03-19T20:26:22.794Z,16.01
2023-03-19T20:28:51.080Z,15.88
2023-03-19T20:31:27.244Z,15.55
2023-03-19T20:33:54.784Z,15.79
2023-03-19T20:36:22.477Z,16.30
2023-03-19T20:38:50.831Z,15.74
2023-03-19T20:41:21.195Z,15.40
2023-03-19T20:43:50.424Z,16.17
2023-03-19T20:46:20.290Z,16.49
2023-03-19T20:48:49.847Z,15.79
2023-03-19T20:51:21.474Z,16.21
2023-03-19T20:53:51.262Z,16.36
2023-03-19T20:56:24.394Z,16.43
2023-03-19T20:58:52.034Z,15.87
2023-03-19T21:01:19.711Z,16.21
2023-03-19T21:03:47.173Z,16.26
2023-03-19T21:06:18.853Z,16.37
2023-03-19T21:08:48.609Z,16.26
2023-03-19T21:11:18.865Z,16.21
2023-03-19T21:13:47.907Z,16.19
2023-03-19T21:16:18.460Z,16.15
2023-03-19T21:18:49.526Z,16.07
2023-03-19T21:21:20.078Z,15.61
2023-03-19T21:23:54.538Z,15.99
2023-03-19T21:26:22.945Z,15.96
2023-03-19T21:28:53.160Z,15.66
2023-03-19T21:31:21.699Z,15.85
2023-03-19T21:33:50.468Z,15.65
2023-03-19T21:36:20.161Z,15.90
2023-03-19T21:38:49.068Z,16.06
2023-03-19T21:41:23.688Z,16.02
2023-03-19T21:43:56.105Z,15.53
2023-03-19T21:46:26.151Z,15.83
2023-03-19T21:48:54.356Z,15.58
2023-03-19T21:51:25.052Z,15.35
2023-03-19T21:53:52.711Z,15.72
2023-03-19T21:56:23.012Z,15.92
2023-03-19T21:58:52.018Z,15.97
2023-03-19T22:01:21.774Z,16.06
2023-03-19T22:03:49.273Z,15.91
2023-03-19T22:06:16.994Z,15.92
2023-03-19T22:08:48.172Z,15.44
2023-03-19T22:11:18.458Z,15.75
2023-03-19T22:13:46.200Z,15.82
2023-03-19T22:16:19.690Z,15.78
2023-03-19T22:18:47.599Z,15.38
2023-03-19T22:21:16.389Z,15.64
2023-03-19T22:23:43.823Z,15.62
2023-03-19T22:26:28.554Z,15.26
2023-03-19T22:28:56.643Z,15.09
2023-03-19T22:31:24.476Z,15.64
2023-03-19T22:33:52.186Z,15.69
2023-03-19T22:36:19.700Z,15.66
2023-03-19T22:38:48.712Z,15.62
2023-03-19T22:41:19.258Z,15.62
2023-03-19T22:43:48.494Z,15.22
2023-03-19T22:46:18.482Z,15.40
2023-03-19T22:48:49.995Z,15.48
2023-03-19T22:51:21.188Z,15.52
2023-03-19T22:53:49.204Z,15.59
2023-03-19T22:56:17.712Z,15.55
2023-03-19T22:58:46.757Z,15.23
2023-03-19T23:01:31.826Z,15.52
2023-03-19T23:04:15.045Z,15.47
2023-03-19T23:06:42.623Z,15.53
2023-03-19T23:09:13.798Z,15.47
2023-03-19T23:11:41.204Z,15.63
2023-03-19T23:14:18.602Z,15.65
2023-03-19T23:19:29.082Z,15.59
2023-03-19T23:21:57.827Z,15.57
2023-03-19T23:24:25.940Z,15.49
2023-03-19T23:26:55.386Z,15.60
2023-03-19T23:29:26.831Z,15.49
2023-03-19T23:31:54.448Z,15.38
2023-03-19T23:34:23.154Z,14.79
2023-03-19T23:36:51.108Z,15.27
2023-03-19T23:39:18.765Z,15.32
2023-03-19T23:41:49.327Z,15.27
2023-03-19T23:44:19.403Z,15.33
2023-03-19T23:46:49.363Z,15.06
2023-03-19T23:49:24.695Z,15.08
2023-03-19T23:51:53.686Z,15.29
2023-03-19T23:54:30.134Z,15.24
2023-03-19T23:56:59.662Z,15.36
2023-03-19T23:59:30.356Z,14.86
